sensor_id;sensor_type;location;lat;lon;timestamp;temperature;humidity
67974;DHT22;54756;51.140;6.952;2022-09-02T00:01:59;17.60;1.00
67974;DHT22;54756;51.140;6.952;2022-09-02T00:04:24;17.60;1.00
67974;DHT22;54756;51.140;6.952;2022-09-02T00:06:23;17.70;1.00
67974;DHT22;54756;51.140;6.952;2022-09-02T00:08:24;17.70;1.00
67974;DHT22;54756;51.140;6.952;2022-09-02T00:10:24;17.70;1.00
67974;DHT22;54756;51.140;6.952;2022-09-02T00:12:25;17.70;1.00
67974;DHT22;54756;51.140;6.952;2022-09-02T00:14:30;17.70;1.00
67974;DHT22;54756;51.140;6.952;2022-09-02T00:16:31;17.60;1.00
67974;DHT22;54756;51.140;6.952;2022-09-02T00:18:32;17.60;1.00
67974;DHT22;54756;51.140;6.952;2022-09-02T00:20:33;17.60;1.00
67974;DHT22;54756;51.140;6.952;2022-09-02T00:22:33;17.50;1.00
67974;DHT22;54756;51.140;6.952;2022-09-02T00:24:34;17.50;1.00
67974;DHT22;54756;51.140;6.952;2022-09-02T00:26:35;17.50;1.00
67974;DHT22;54756;51.140;6.952;2022-09-02T00:28:35;17.40;1.00
67974;DHT22;54756;51.140;6.952;2022-09-02T00:30:36;17.40;1.00
67974;DHT22;54756;51.140;6.952;2022-09-02T00:32:37;17.40;1.00
67974;DHT22;54756;51.140;6.952;2022-09-02T00:34:37;17.40;1.00
67974;DHT22;54756;51.140;6.952;2022-09-02T00:36:39;17.30;1.00
67974;DHT22;54756;51.140;6.952;2022-09-02T00:38:39;17.30;1.00
67974;DHT22;54756;51.140;6.952;2022-09-02T00:40:46;17.30;1.00
67974;DHT22;54756;51.140;6.952;2022-09-02T00:42:47;17.30;1.00
67974;DHT22;54756;51.140;6.952;2022-09-02T00:44:48;17.30;1.00
67974;DHT22;54756;51.140;6.952;2022-09-02T00:46:49;17.30;1.00
67974;DHT22;54756;51.140;6.952;2022-09-02T00:49:00;17.30;1.00
67974;DHT22;54756;51.140;6.952;2022-09-02T00:51:01;17.30;1.00
67974;DHT22;54756;51.140;6.952;2022-09-02T00:53:07;17.30;1.00
67974;DHT22;54756;51.140;6.952;2022-09-02T00:55:17;17.30;1.00
67974;DHT22;54756;51.140;6.952;2022-09-02T00:57:20;17.30;1.00
67974;DHT22;54756;51.140;6.952;2022-09-02T00:59:45;17.30;1.00
67974;DHT22;54756;51.140;6.952;2022-09-02T01:01:48;17.20;1.00
67974;DHT22;54756;51.140;6.952;2022-09-02T01:03:49;17.10;1.00
67974;DHT22;54756;51.140;6.952;2022-09-02T01:05:51;17.10;1.00
67974;DHT22;54756;51.140;6.952;2022-09-02T01:07:53;17.10;1.00
67974;DHT22;54756;51.140;6.952;2022-09-02T01:09:55;17.10;1.00
67974;DHT22;54756;51.140;6.952;2022-09-02T01:11:56;17.10;1.00
67974;DHT22;54756;51.140;6.952;2022-09-02T01:13:58;17.10;1.00
67974;DHT22;54756;51.140;6.952;2022-09-02T01:16:22;17.10;1.00
67974;DHT22;54756;51.140;6.952;2022-09-02T01:18:27;17.10;1.00
67974;DHT22;54756;51.140;6.952;2022-09-02T01:20:28;17.10;1.00
67974;DHT22;54756;51.140;6.952;2022-09-02T01:22:30;17.10;1.00
67974;DHT22;54756;51.140;6.952;2022-09-02T01:24:32;17.10;1.00
67974;DHT22;54756;51.140;6.952;2022-09-02T01:26:34;17.10;1.00
67974;DHT22;54756;51.140;6.952;2022-09-02T01:28:34;17.10;1.00
67974;DHT22;54756;51.140;6.952;2022-09-02T01:30:39;17.00;1.00
67974;DHT22;54756;51.140;6.952;2022-09-02T01:32:41;17.00;1.00
67974;DHT22;54756;51.140;6.952;2022-09-02T01:34:42;16.90;1.00
67974;DHT22;54756;51.140;6.952;2022-09-02T01:36:43;16.90;1.00
67974;DHT22;54756;51.140;6.952;2022-09-02T01:38:43;16.90;1.00
67974;DHT22;54756;51.140;6.952;2022-09-02T01:40:44;16.90;1.00
67974;DHT22;54756;51.140;6.952;2022-09-02T01:42:45;16.90;1.00
67974;DHT22;54756;51.140;6.952;2022-09-02T01:44:46;16.90;1.00
67974;DHT22;54756;51.140;6.952;2022-09-02T01:46:47;17.00;1.00
67974;DHT22;54756;51.140;6.952;2022-09-02T01:48:47;16.90;1.00
67974;DHT22;54756;51.140;6.952;2022-09-02T01:50:52;16.90;1.00
67974;DHT22;54756;51.140;6.952;2022-09-02T01:52:53;17.00;1.00
67974;DHT22;54756;51.140;6.952;2022-09-02T01:54:54;17.00;1.00
67974;DHT22;54756;51.140;6.952;2022-09-02T01:56:54;16.90;1.00
67974;DHT22;54756;51.140;6.952;2022-09-02T01:58:55;16.90;1.00
67974;DHT22;54756;51.140;6.952;2022-09-02T02:00:56;16.80;1.00
67974;DHT22;54756;51.140;6.952;2022-09-02T02:02:56;16.80;1.00
67974;DHT22;54756;51.140;6.952;2022-09-02T02:04:57;16.70;1.00
67974;DHT22;54756;51.140;6.952;2022-09-02T02:06:58;16.70;1.00
67974;DHT22;54756;51.140;6.952;2022-09-02T02:08:58;16.60;1.00
67974;DHT22;54756;51.140;6.952;2022-09-02T02:10:59;16.60;1.00
67974;DHT22;54756;51.140;6.952;2022-09-02T02:13:01;16.60;1.00
67974;DHT22;54756;51.140;6.952;2022-09-02T02:15:09;16.50;1.00
67974;DHT22;54756;51.140;6.952;2022-09-02T02:17:09;16.40;1.00
67974;DHT22;54756;51.140;6.952;2022-09-02T02:19:10;16.30;1.00
67974;DHT22;54756;51.140;6.952;2022-09-02T02:21:10;16.20;1.00
67974;DHT22;54756;51.140;6.952;2022-09-02T02:23:11;16.20;1.00
67974;DHT22;54756;51.140;6.952;2022-09-02T02:25:13;16.10;1.00
67974;DHT22;54756;51.140;6.952;2022-09-02T02:27:14;16.10;1.00
67974;DHT22;54756;51.140;6.952;2022-09-02T02:29:15;16.00;1.00
67974;DHT22;54756;51.140;6.952;2022-09-02T02:31:15;15.90;1.00
67974;DHT22;54756;51.140;6.952;2022-09-02T02:33:16;15.90;1.00
67974;DHT22;54756;51.140;6.952;2022-09-02T02:35:17;15.90;1.00
67974;DHT22;54756;51.140;6.952;2022-09-02T02:37:19;15.80;1.00
67974;DHT22;54756;51.140;6.952;2022-09-02T02:39:20;15.90;1.00
67974;DHT22;54756;51.140;6.952;2022-09-02T02:41:21;15.90;1.00
67974;DHT22;54756;51.140;6.952;2022-09-02T02:43:23;15.90;1.00
67974;DHT22;54756;51.140;6.952;2022-09-02T02:45:24;15.90;1.00
67974;DHT22;54756;51.140;6.952;2022-09-02T02:47:25;15.90;1.00
67974;DHT22;54756;51.140;6.952;2022-09-02T02:49:27;15.90;1.00
67974;DHT22;54756;51.140;6.952;2022-09-02T02:51:28;15.90;1.00
67974;DHT22;54756;51.140;6.952;2022-09-02T02:53:29;15.80;1.00
67974;DHT22;54756;51.140;6.952;2022-09-02T02:55:30;15.90;1.00
67974;DHT22;54756;51.140;6.952;2022-09-02T02:57:32;15.80;1.00
67974;DHT22;54756;51.140;6.952;2022-09-02T02:59:33;15.80;1.00
67974;DHT22;54756;51.140;6.952;2022-09-02T03:01:33;15.80;1.00
67974;DHT22;54756;51.140;6.952;2022-09-02T03:03:34;15.80;1.00
67974;DHT22;54756;51.140;6.952;2022-09-02T03:05:36;15.80;1.00
67974;DHT22;54756;51.140;6.952;2022-09-02T03:07:37;15.90;1.00
67974;DHT22;54756;51.140;6.952;2022-09-02T03:09:38;15.90;1.00
67974;DHT22;54756;51.140;6.952;2022-09-02T03:11:39;15.90;1.00
67974;DHT22;54756;51.140;6.952;2022-09-02T03:13:39;15.90;1.00
67974;DHT22;54756;51.140;6.952;2022-09-02T03:15:41;15.90;1.00
67974;DHT22;54756;51.140;6.952;2022-09-02T03:17:43;15.90;1.00
67974;DHT22;54756;51.140;6.952;2022-09-02T03:19:43;16.00;1.00
67974;DHT22;54756;51.140;6.952;2022-09-02T03:21:44;15.90;1.00
67974;DHT22;54756;51.140;6.952;2022-09-02T03:23:45;15.90;1.00
67974;DHT22;54756;51.140;6.952;2022-09-02T03:25:46;15.90;1.00
67974;DHT22;54756;51.140;6.952;2022-09-02T03:27:47;15.90;1.00
67974;DHT22;54756;51.140;6.952;2022-09-02T03:29:48;15.80;1.00
67974;DHT22;54756;51.140;6.952;2022-09-02T03:31:48;15.80;1.00
67974;DHT22;54756;51.140;6.952;2022-09-02T03:33:49;15.80;1.00
67974;DHT22;54756;51.140;6.952;2022-09-02T03:35:50;15.70;1.00
67974;DHT22;54756;51.140;6.952;2022-09-02T03:37:51;15.70;1.00
67974;DHT22;54756;51.140;6.952;2022-09-02T03:39:52;15.70;1.00
67974;DHT22;54756;51.140;6.952;2022-09-02T03:41:53;15.50;1.00
67974;DHT22;54756;51.140;6.952;2022-09-02T03:43:53;15.50;1.00
67974;DHT22;54756;51.140;6.952;2022-09-02T03:45:54;15.50;1.00
67974;DHT22;54756;51.140;6.952;2022-09-02T03:47:55;15.50;1.00
67974;DHT22;54756;51.140;6.952;2022-09-02T03:49:56;15.40;1.00
67974;DHT22;54756;51.140;6.952;2022-09-02T03:51:56;15.40;1.00
67974;DHT22;54756;51.140;6.952;2022-09-02T03:53:57;15.40;1.00
67974;DHT22;54756;51.140;6.952;2022-09-02T03:56:04;15.40;1.00
67974;DHT22;54756;51.140;6.952;2022-09-02T03:58:05;15.40;1.00
67974;DHT22;54756;51.140;6.952;2022-09-02T04:00:08;15.40;1.00
67974;DHT22;54756;51.140;6.952;2022-09-02T04:02:09;15.40;1.00
67974;DHT22;54756;51.140;6.952;2022-09-02T04:04:09;15.40;1.00
67974;DHT22;54756;51.140;6.952;2022-09-02T04:06:11;15.40;1.00
67974;DHT22;54756;51.140;6.952;2022-09-02T04:08:12;15.30;1.00
67974;DHT22;54756;51.140;6.952;2022-09-02T04:10:13;15.30;1.00
67974;DHT22;54756;51.140;6.952;2022-09-02T04:12:14;15.40;1.00
67974;DHT22;54756;51.140;6.952;2022-09-02T04:14:14;15.30;1.00
67974;DHT22;54756;51.140;6.952;2022-09-02T04:16:19;15.30;1.00
67974;DHT22;54756;51.140;6.952;2022-09-02T04:18:20;15.30;1.00
67974;DHT22;54756;51.140;6.952;2022-09-02T04:20:20;15.30;1.00
67974;DHT22;54756;51.140;6.952;2022-09-02T04:22:22;15.20;1.00
67974;DHT22;54756;51.140;6.952;2022-09-02T04:24:23;15.20;1.00
67974;DHT22;54756;51.140;6.952;2022-09-02T04:26:23;15.20;1.00
67974;DHT22;54756;51.140;6.952;2022-09-02T04:28:24;15.20;1.00
67974;DHT22;54756;51.140;6.952;2022-09-02T04:30:25;15.10;1.00
67974;DHT22;54756;51.140;6.952;2022-09-02T04:32:26;15.10;1.00
67974;DHT22;54756;51.140;6.952;2022-09-02T04:34:26;15.00;1.00
67974;DHT22;54756;51.140;6.952;2022-09-02T04:36:28;15.00;1.00
67974;DHT22;54756;51.140;6.952;2022-09-02T04:38:28;15.00;1.00
67974;DHT22;54756;51.140;6.952;2022-09-02T04:40:29;14.90;1.00
67974;DHT22;54756;51.140;6.952;2022-09-02T04:42:30;14.90;1.00
67974;DHT22;54756;51.140;6.952;2022-09-02T04:44:31;14.90;1.00
67974;DHT22;54756;51.140;6.952;2022-09-02T04:46:32;15.00;1.00
67974;DHT22;54756;51.140;6.952;2022-09-02T04:48:34;14.90;1.00
67974;DHT22;54756;51.140;6.952;2022-09-02T04:50:37;15.00;1.00
67974;DHT22;54756;51.140;6.952;2022-09-02T04:52:38;15.00;1.00
67974;DHT22;54756;51.140;6.952;2022-09-02T04:54:39;14.90;1.00
67974;DHT22;54756;51.140;6.952;2022-09-02T04:56:39;15.00;1.00
67974;DHT22;54756;51.140;6.952;2022-09-02T04:58:41;14.90;1.00
67974;DHT22;54756;51.140;6.952;2022-09-02T05:00:42;14.90;1.00
67974;DHT22;54756;51.140;6.952;2022-09-02T05:02:43;14.90;1.00
67974;DHT22;54756;51.140;6.952;2022-09-02T05:04:43;14.90;1.00
67974;DHT22;54756;51.140;6.952;2022-09-02T05:06:44;14.80;1.00
67974;DHT22;54756;51.140;6.952;2022-09-02T05:08:46;14.90;1.00
67974;DHT22;54756;51.140;6.952;2022-09-02T05:10:49;14.90;1.00
67974;DHT22;54756;51.140;6.952;2022-09-02T05:12:51;14.90;1.00
67974;DHT22;54756;51.140;6.952;2022-09-02T05:14:52;14.90;1.00
67974;DHT22;54756;51.140;6.952;2022-09-02T05:16:53;15.00;1.00
67974;DHT22;54756;51.140;6.952;2022-09-02T05:18:54;15.10;1.00
67974;DHT22;54756;51.140;6.952;2022-09-02T05:20:55;15.10;1.00
67974;DHT22;54756;51.140;6.952;2022-09-02T05:22:56;15.20;1.00
67974;DHT22;54756;51.140;6.952;2022-09-02T05:24:57;15.30;1.00
67974;DHT22;54756;51.140;6.952;2022-09-02T05:26:57;15.40;1.00
67974;DHT22;54756;51.140;6.952;2022-09-02T05:28:58;15.50;1.00
67974;DHT22;54756;51.140;6.952;2022-09-02T05:31:13;15.60;1.00
67974;DHT22;54756;51.140;6.952;2022-09-02T05:33:13;15.70;1.00
67974;DHT22;54756;51.140;6.952;2022-09-02T05:35:14;15.80;1.00
67974;DHT22;54756;51.140;6.952;2022-09-02T05:37:15;15.90;1.00
67974;DHT22;54756;51.140;6.952;2022-09-02T05:39:16;16.00;1.00
67974;DHT22;54756;51.140;6.952;2022-09-02T05:41:20;16.10;1.00
67974;DHT22;54756;51.140;6.952;2022-09-02T05:43:24;16.20;1.00
67974;DHT22;54756;51.140;6.952;2022-09-02T05:45:25;16.30;1.00
67974;DHT22;54756;51.140;6.952;2022-09-02T05:47:25;16.40;1.00
67974;DHT22;54756;51.140;6.952;2022-09-02T05:49:26;16.60;1.00
67974;DHT22;54756;51.140;6.952;2022-09-02T05:51:26;16.70;1.00
67974;DHT22;54756;51.140;6.952;2022-09-02T05:53:27;16.90;1.00
67974;DHT22;54756;51.140;6.952;2022-09-02T05:55:28;17.00;1.00
67974;DHT22;54756;51.140;6.952;2022-09-02T05:57:29;17.10;1.00
67974;DHT22;54756;51.140;6.952;2022-09-02T05:59:30;17.20;1.00
67974;DHT22;54756;51.140;6.952;2022-09-02T06:01:31;17.30;1.00
67974;DHT22;54756;51.140;6.952;2022-09-02T06:03:32;17.40;1.00
67974;DHT22;54756;51.140;6.952;2022-09-02T06:05:33;17.50;1.00
67974;DHT22;54756;51.140;6.952;2022-09-02T06:07:35;17.60;1.00
67974;DHT22;54756;51.140;6.952;2022-09-02T06:09:36;17.70;1.00
67974;DHT22;54756;51.140;6.952;2022-09-02T06:11:39;17.70;1.00
67974;DHT22;54756;51.140;6.952;2022-09-02T06:13:44;17.70;1.00
67974;DHT22;54756;51.140;6.952;2022-09-02T06:15:45;17.70;1.00
67974;DHT22;54756;51.140;6.952;2022-09-02T06:17:45;17.70;1.00
67974;DHT22;54756;51.140;6.952;2022-09-02T06:19:46;17.60;1.00
67974;DHT22;54756;51.140;6.952;2022-09-02T06:21:47;17.60;1.00
67974;DHT22;54756;51.140;6.952;2022-09-02T06:23:48;17.60;1.00
67974;DHT22;54756;51.140;6.952;2022-09-02T06:25:49;17.60;1.00
67974;DHT22;54756;51.140;6.952;2022-09-02T06:27:49;17.60;1.00
67974;DHT22;54756;51.140;6.952;2022-09-02T06:29:50;17.50;1.00
67974;DHT22;54756;51.140;6.952;2022-09-02T06:31:51;17.50;1.00
67974;DHT22;54756;51.140;6.952;2022-09-02T06:33:54;17.50;1.00
67974;DHT22;54756;51.140;6.952;2022-09-02T06:35:55;17.60;1.00
67974;DHT22;54756;51.140;6.952;2022-09-02T06:37:55;17.60;1.00
67974;DHT22;54756;51.140;6.952;2022-09-02T06:39:56;17.60;1.00
67974;DHT22;54756;51.140;6.952;2022-09-02T06:41:56;17.60;1.00
67974;DHT22;54756;51.140;6.952;2022-09-02T06:44:02;17.70;1.00
67974;DHT22;54756;51.140;6.952;2022-09-02T06:46:04;17.80;1.00
67974;DHT22;54756;51.140;6.952;2022-09-02T06:48:05;17.90;1.00
67974;DHT22;54756;51.140;6.952;2022-09-02T06:50:06;18.00;1.00
67974;DHT22;54756;51.140;6.952;2022-09-02T06:52:06;18.10;1.00
67974;DHT22;54756;51.140;6.952;2022-09-02T06:54:10;18.20;1.00
67974;DHT22;54756;51.140;6.952;2022-09-02T06:56:12;18.40;1.00
67974;DHT22;54756;51.140;6.952;2022-09-02T06:58:13;18.50;1.00
67974;DHT22;54756;51.140;6.952;2022-09-02T07:00:14;18.70;1.00
67974;DHT22;54756;51.140;6.952;2022-09-02T07:02:16;19.00;1.00
67974;DHT22;54756;51.140;6.952;2022-09-02T07:04:16;19.20;1.00
67974;DHT22;54756;51.140;6.952;2022-09-02T07:06:40;19.40;1.00
67974;DHT22;54756;51.140;6.952;2022-09-02T07:08:42;19.70;1.00
67974;DHT22;54756;51.140;6.952;2022-09-02T07:10:43;19.90;1.00
67974;DHT22;54756;51.140;6.952;2022-09-02T07:12:44;20.10;1.00
67974;DHT22;54756;51.140;6.952;2022-09-02T07:14:45;20.30;1.00
67974;DHT22;54756;51.140;6.952;2022-09-02T07:16:49;20.50;1.00
67974;DHT22;54756;51.140;6.952;2022-09-02T07:18:50;20.70;1.00
67974;DHT22;54756;51.140;6.952;2022-09-02T07:20:51;20.80;1.00
67974;DHT22;54756;51.140;6.952;2022-09-02T07:22:52;20.80;1.00
67974;DHT22;54756;51.140;6.952;2022-09-02T07:24:55;20.80;1.00
67974;DHT22;54756;51.140;6.952;2022-09-02T07:26:56;20.90;1.00
67974;DHT22;54756;51.140;6.952;2022-09-02T07:28:57;20.90;1.00
67974;DHT22;54756;51.140;6.952;2022-09-02T07:30:58;20.90;1.00
67974;DHT22;54756;51.140;6.952;2022-09-02T07:32:59;20.90;1.00
67974;DHT22;54756;51.140;6.952;2022-09-02T07:34:59;20.90;1.00
67974;DHT22;54756;51.140;6.952;2022-09-02T07:37:00;21.00;1.00
67974;DHT22;54756;51.140;6.952;2022-09-02T07:39:02;20.90;1.00
67974;DHT22;54756;51.140;6.952;2022-09-02T07:41:03;20.90;1.00
67974;DHT22;54756;51.140;6.952;2022-09-02T07:43:06;21.00;1.00
67974;DHT22;54756;51.140;6.952;2022-09-02T07:45:08;20.90;1.00
67974;DHT22;54756;51.140;6.952;2022-09-02T07:47:08;20.90;1.00
67974;DHT22;54756;51.140;6.952;2022-09-02T07:49:11;20.90;1.00
67974;DHT22;54756;51.140;6.952;2022-09-02T07:51:12;20.90;1.00
67974;DHT22;54756;51.140;6.952;2022-09-02T07:53:13;21.00;1.00
67974;DHT22;54756;51.140;6.952;2022-09-02T07:55:15;21.00;1.00
67974;DHT22;54756;51.140;6.952;2022-09-02T07:57:16;21.10;1.00
67974;DHT22;54756;51.140;6.952;2022-09-02T07:59:17;21.20;1.00
67974;DHT22;54756;51.140;6.952;2022-09-02T08:01:18;21.30;1.00
67974;DHT22;54756;51.140;6.952;2022-09-02T08:03:20;21.30;1.00
67974;DHT22;54756;51.140;6.952;2022-09-02T08:05:21;21.40;1.00
67974;DHT22;54756;51.140;6.952;2022-09-02T08:07:22;21.50;1.00
67974;DHT22;54756;51.140;6.952;2022-09-02T08:09:23;21.60;1.00
67974;DHT22;54756;51.140;6.952;2022-09-02T08:11:24;21.60;1.00
67974;DHT22;54756;51.140;6.952;2022-09-02T08:13:25;21.70;1.00
67974;DHT22;54756;51.140;6.952;2022-09-02T08:15:27;21.70;1.00
67974;DHT22;54756;51.140;6.952;2022-09-02T08:17:28;21.70;1.00
67974;DHT22;54756;51.140;6.952;2022-09-02T08:19:29;21.80;1.00
67974;DHT22;54756;51.140;6.952;2022-09-02T08:21:29;21.80;1.00
67974;DHT22;54756;51.140;6.952;2022-09-02T08:23:30;22.00;1.00
67974;DHT22;54756;51.140;6.952;2022-09-02T08:25:32;22.10;1.00
67974;DHT22;54756;51.140;6.952;2022-09-02T08:27:33;22.10;1.00
67974;DHT22;54756;51.140;6.952;2022-09-02T08:29:34;22.20;1.00
67974;DHT22;54756;51.140;6.952;2022-09-02T08:31:38;22.40;1.00
67974;DHT22;54756;51.140;6.952;2022-09-02T08:33:38;22.50;1.00
67974;DHT22;54756;51.140;6.952;2022-09-02T08:35:39;22.60;1.00
67974;DHT22;54756;51.140;6.952;2022-09-02T08:37:39;22.70;1.00
67974;DHT22;54756;51.140;6.952;2022-09-02T08:39:40;22.90;1.00
67974;DHT22;54756;51.140;6.952;2022-09-02T08:43:59;23.20;1.00
67974;DHT22;54756;51.140;6.952;2022-09-02T08:46:02;23.40;1.00
67974;DHT22;54756;51.140;6.952;2022-09-02T08:48:18;23.60;1.00
67974;DHT22;54756;51.140;6.952;2022-09-02T08:50:21;23.80;1.00
67974;DHT22;54756;51.140;6.952;2022-09-02T08:52:35;23.90;1.00
67974;DHT22;54756;51.140;6.952;2022-09-02T08:54:45;24.20;1.00
67974;DHT22;54756;51.140;6.952;2022-09-02T08:56:48;24.30;1.00
67974;DHT22;54756;51.140;6.952;2022-09-02T08:58:51;24.40;1.00
67974;DHT22;54756;51.140;6.952;2022-09-02T09:01:17;24.60;1.00
67974;DHT22;54756;51.140;6.952;2022-09-02T09:03:27;24.70;1.00
67974;DHT22;54756;51.140;6.952;2022-09-02T09:17:24;25.10;1.00
67974;DHT22;54756;51.140;6.952;2022-09-02T09:19:52;25.20;1.00
67974;DHT22;54756;51.140;6.952;2022-09-02T09:21:54;25.30;1.00
67974;DHT22;54756;51.140;6.952;2022-09-02T09:23:56;25.40;1.00
67974;DHT22;54756;51.140;6.952;2022-09-02T09:28:08;25.60;1.00
67974;DHT22;54756;51.140;6.952;2022-09-02T09:30:09;25.70;1.00
67974;DHT22;54756;51.140;6.952;2022-09-02T09:32:28;25.80;1.00
67974;DHT22;54756;51.140;6.952;2022-09-02T09:34:57;26.00;1.00
67974;DHT22;54756;51.140;6.952;2022-09-02T09:36:59;26.10;1.00
67974;DHT22;54756;51.140;6.952;2022-09-02T09:39:16;26.30;1.00
67974;DHT22;54756;51.140;6.952;2022-09-02T09:41:20;26.40;1.00
67974;DHT22;54756;51.140;6.952;2022-09-02T09:43:28;26.50;1.00
67974;DHT22;54756;51.140;6.952;2022-09-02T09:45:40;26.60;1.00
67974;DHT22;54756;51.140;6.952;2022-09-02T09:47:41;26.70;1.00
67974;DHT22;54756;51.140;6.952;2022-09-02T09:49:42;26.90;1.00
67974;DHT22;54756;51.140;6.952;2022-09-02T09:51:53;27.00;1.00
67974;DHT22;54756;51.140;6.952;2022-09-02T09:54:13;27.10;1.00
67974;DHT22;54756;51.140;6.952;2022-09-02T09:58:15;27.70;1.00
67974;DHT22;54756;51.140;6.952;2022-09-02T10:00:30;27.80;1.00
67974;DHT22;54756;51.140;6.952;2022-09-02T10:02:31;27.90;1.00
67974;DHT22;54756;51.140;6.952;2022-09-02T10:04:32;28.10;1.00
67974;DHT22;54756;51.140;6.952;2022-09-02T10:06:42;28.60;1.00
67974;DHT22;54756;51.140;6.952;2022-09-02T10:08:58;29.20;1.00
67974;DHT22;54756;51.140;6.952;2022-09-02T10:11:02;29.90;1.00
67974;DHT22;54756;51.140;6.952;2022-09-02T10:13:24;30.20;1.00
67974;DHT22;54756;51.140;6.952;2022-09-02T10:15:35;30.40;1.00
67974;DHT22;54756;51.140;6.952;2022-09-02T10:17:52;30.30;1.00
67974;DHT22;54756;51.140;6.952;2022-09-02T10:25:01;30.30;1.00
67974;DHT22;54756;51.140;6.952;2022-09-02T10:27:06;30.10;1.00
67974;DHT22;54756;51.140;6.952;2022-09-02T10:36:04;30.30;1.00
67974;DHT22;54756;51.140;6.952;2022-09-02T10:40:34;30.40;1.00
67974;DHT22;54756;51.140;6.952;2022-09-02T10:43:06;30.40;1.00
67974;DHT22;54756;51.140;6.952;2022-09-02T10:47:37;30.80;1.00
67974;DHT22;54756;51.140;6.952;2022-09-02T10:56:16;31.30;1.00
67974;DHT22;54756;51.140;6.952;2022-09-02T11:00:54;30.90;1.00
67974;DHT22;54756;51.140;6.952;2022-09-02T11:08:00;32.30;1.00
67974;DHT22;54756;51.140;6.952;2022-09-02T11:10:10;33.30;1.00
67974;DHT22;54756;51.140;6.952;2022-09-02T11:14:41;34.30;1.00
67974;DHT22;54756;51.140;6.952;2022-09-02T11:16:51;34.40;1.00
67974;DHT22;54756;51.140;6.952;2022-09-02T11:19:15;34.50;1.00
67974;DHT22;54756;51.140;6.952;2022-09-02T11:21:30;34.40;1.00
67974;DHT22;54756;51.140;6.952;2022-09-02T11:26:15;34.40;1.00
67974;DHT22;54756;51.140;6.952;2022-09-02T11:28:32;34.90;1.00
67974;DHT22;54756;51.140;6.952;2022-09-02T11:30:42;34.60;1.00
67974;DHT22;54756;51.140;6.952;2022-09-02T11:32:55;33.90;1.00
67974;DHT22;54756;51.140;6.952;2022-09-02T11:35:03;33.50;1.00
67974;DHT22;54756;51.140;6.952;2022-09-02T11:37:08;34.20;1.00
67974;DHT22;54756;51.140;6.952;2022-09-02T11:41:25;35.40;1.00
67974;DHT22;54756;51.140;6.952;2022-09-02T11:43:42;36.20;1.00
67974;DHT22;54756;51.140;6.952;2022-09-02T11:45:57;36.60;1.00
67974;DHT22;54756;51.140;6.952;2022-09-02T11:48:34;35.80;1.00
67974;DHT22;54756;51.140;6.952;2022-09-02T11:51:02;35.90;1.00
67974;DHT22;54756;51.140;6.952;2022-09-02T11:55:33;38.30;1.00
67974;DHT22;54756;51.140;6.952;2022-09-02T11:57:35;38.70;1.00
67974;DHT22;54756;51.140;6.952;2022-09-02T12:01:53;37.30;1.00
67974;DHT22;54756;51.140;6.952;2022-09-02T12:06:12;36.30;1.00
67974;DHT22;54756;51.140;6.952;2022-09-02T12:17:02;33.80;1.00
67974;DHT22;54756;51.140;6.952;2022-09-02T12:21:15;33.20;1.00
67974;DHT22;54756;51.140;6.952;2022-09-02T12:25:56;33.00;1.00
67974;DHT22;54756;51.140;6.952;2022-09-02T12:28:26;33.10;1.00
67974;DHT22;54756;51.140;6.952;2022-09-02T12:33:10;33.40;1.00
67974;DHT22;54756;51.140;6.952;2022-09-02T12:37:50;33.60;1.00
67974;DHT22;54756;51.140;6.952;2022-09-02T12:39:53;33.90;1.00
67974;DHT22;54756;51.140;6.952;2022-09-02T12:44:07;34.10;1.00
67974;DHT22;54756;51.140;6.952;2022-09-02T12:46:24;34.20;1.00
67974;DHT22;54756;51.140;6.952;2022-09-02T12:48:37;34.10;1.00
67974;DHT22;54756;51.140;6.952;2022-09-02T12:55:33;34.20;1.00
67974;DHT22;54756;51.140;6.952;2022-09-02T12:57:40;34.10;1.00
67974;DHT22;54756;51.140;6.952;2022-09-02T12:59:42;34.10;1.00
67974;DHT22;54756;51.140;6.952;2022-09-02T13:01:50;34.00;1.00
67974;DHT22;54756;51.140;6.952;2022-09-02T13:03:59;33.90;1.00
67974;DHT22;54756;51.140;6.952;2022-09-02T13:16:14;33.60;1.00
67974;DHT22;54756;51.140;6.952;2022-09-02T13:18:46;33.40;1.00
67974;DHT22;54756;51.140;6.952;2022-09-02T13:32:12;32.50;1.00
67974;DHT22;54756;51.140;6.952;2022-09-02T13:34:15;32.60;1.00
67974;DHT22;54756;51.140;6.952;2022-09-02T13:36:25;32.80;1.00
67974;DHT22;54756;51.140;6.952;2022-09-02T13:38:28;33.00;1.00
67974;DHT22;54756;51.140;6.952;2022-09-02T13:40:31;33.10;1.00
67974;DHT22;54756;51.140;6.952;2022-09-02T13:42:35;33.40;1.00
67974;DHT22;54756;51.140;6.952;2022-09-02T13:44:36;33.50;1.00
67974;DHT22;54756;51.140;6.952;2022-09-02T13:46:44;33.60;1.00
67974;DHT22;54756;51.140;6.952;2022-09-02T13:48:45;33.70;1.00
67974;DHT22;54756;51.140;6.952;2022-09-02T13:50:47;33.90;1.00
67974;DHT22;54756;51.140;6.952;2022-09-02T13:52:54;34.00;1.00
67974;DHT22;54756;51.140;6.952;2022-09-02T13:54:57;34.10;1.00
67974;DHT22;54756;51.140;6.952;2022-09-02T13:57:01;34.20;1.00
67974;DHT22;54756;51.140;6.952;2022-09-02T13:59:02;34.30;1.00
67974;DHT22;54756;51.140;6.952;2022-09-02T14:01:22;34.40;1.00
67974;DHT22;54756;51.140;6.952;2022-09-02T14:03:23;34.20;1.00
67974;DHT22;54756;51.140;6.952;2022-09-02T14:05:25;34.10;1.00
67974;DHT22;54756;51.140;6.952;2022-09-02T14:07:36;34.20;1.00
67974;DHT22;54756;51.140;6.952;2022-09-02T14:09:38;34.40;1.00
67974;DHT22;54756;51.140;6.952;2022-09-02T14:11:41;34.50;1.00
67974;DHT22;54756;51.140;6.952;2022-09-02T14:13:46;34.60;1.00
67974;DHT22;54756;51.140;6.952;2022-09-02T14:15:48;34.80;1.00
67974;DHT22;54756;51.140;6.952;2022-09-02T14:18:11;34.90;1.00
67974;DHT22;54756;51.140;6.952;2022-09-02T14:20:18;35.00;1.00
67974;DHT22;54756;51.140;6.952;2022-09-02T14:22:25;35.00;1.00
67974;DHT22;54756;51.140;6.952;2022-09-02T14:24:36;34.90;1.00
67974;DHT22;54756;51.140;6.952;2022-09-02T14:26:44;34.90;1.00
67974;DHT22;54756;51.140;6.952;2022-09-02T14:28:50;34.90;1.00
67974;DHT22;54756;51.140;6.952;2022-09-02T14:31:22;34.90;1.00
67974;DHT22;54756;51.140;6.952;2022-09-02T14:35:35;34.80;1.00
67974;DHT22;54756;51.140;6.952;2022-09-02T14:37:53;34.70;1.00
67974;DHT22;54756;51.140;6.952;2022-09-02T14:40:08;34.70;1.00
67974;DHT22;54756;51.140;6.952;2022-09-02T14:42:11;34.50;1.00
67974;DHT22;54756;51.140;6.952;2022-09-02T14:44:31;34.40;1.00
67974;DHT22;54756;51.140;6.952;2022-09-02T14:46:45;34.30;1.00
67974;DHT22;54756;51.140;6.952;2022-09-02T14:48:52;34.20;1.00
67974;DHT22;54756;51.140;6.952;2022-09-02T14:51:03;34.20;1.00
67974;DHT22;54756;51.140;6.952;2022-09-02T14:53:06;34.00;1.00
67974;DHT22;54756;51.140;6.952;2022-09-02T14:57:35;33.80;1.00
67974;DHT22;54756;51.140;6.952;2022-09-02T14:59:38;33.90;1.00
67974;DHT22;54756;51.140;6.952;2022-09-02T15:01:40;34.00;1.00
67974;DHT22;54756;51.140;6.952;2022-09-02T15:03:41;33.90;1.00
67974;DHT22;54756;51.140;6.952;2022-09-02T15:05:43;33.80;1.00
67974;DHT22;54756;51.140;6.952;2022-09-02T15:07:44;33.80;1.00
67974;DHT22;54756;51.140;6.952;2022-09-02T15:09:45;33.70;1.00
67974;DHT22;54756;51.140;6.952;2022-09-02T15:11:52;33.70;1.00